Chandler, Canada
Current Conditions -  °F | °C
As of 11:00 AM on Wednesday 22 Oct 2014 (Local Time) from CYGP Reporting Station
Broken Clouds Broken Clouds  
Wind Chill: 43°   Ceiling: 1600
Heat Index: 43°   Visibility: 15mi
Dew Point: 36°   Wind: 3mph
Humidity: 76%   Direction: 290°WNW
Pressure: 30.52"   Gusts: NA
Location:  48.33°N, 64.67°W
Report Text: CYGP 221500Z 29003KT 220V350 15SM BKN016 06/02 A3052 RMK SC7 SLP335
Loading
Personal Weather Stations






























Interactive Weather Map
Tropical Storm Tracking
New forecast layout! Learn more

10-Day Weather Forecast

Advertisements
Track Severe Weather on mobile